sensor_id;sensor_type;location;lat;lon;timestamp;P1;durP1;ratioP1;P2;durP2;ratioP2
3036;SDS011;1528;52.550;13.408;2024-02-26T00:00:02;24.73;;;22.93;;
3036;SDS011;1528;52.550;13.408;2024-02-26T00:02:52;25.73;;;23.73;;
3036;SDS011;1528;52.550;13.408;2024-02-26T00:05:39;25.87;;;24.17;;
3036;SDS011;1528;52.550;13.408;2024-02-26T00:08:25;25.80;;;24.00;;
3036;SDS011;1528;52.550;13.408;2024-02-26T00:11:11;25.63;;;23.93;;
3036;SDS011;1528;52.550;13.408;2024-02-26T00:13:56;26.53;;;24.63;;
3036;SDS011;1528;52.550;13.408;2024-02-26T00:16:42;26.47;;;24.40;;
3036;SDS011;1528;52.550;13.408;2024-02-26T00:19:29;28.37;;;26.50;;
3036;SDS011;1528;52.550;13.408;2024-02-26T00:22:16;26.57;;;24.73;;
3036;SDS011;1528;52.550;13.408;2024-02-26T00:25:01;26.17;;;24.37;;
3036;SDS011;1528;52.550;13.408;2024-02-26T00:27:47;22.37;;;20.87;;
3036;SDS011;1528;52.550;13.408;2024-02-26T00:30:33;25.90;;;24.10;;
3036;SDS011;1528;52.550;13.408;2024-02-26T00:33:18;25.93;;;24.23;;
3036;SDS011;1528;52.550;13.408;2024-02-26T00:36:04;25.77;;;23.87;;
3036;SDS011;1528;52.550;13.408;2024-02-26T00:38:51;25.50;;;23.77;;
3036;SDS011;1528;52.550;13.408;2024-02-26T00:41:38;25.80;;;24.10;;
3036;SDS011;1528;52.550;13.408;2024-02-26T00:44:24;26.13;;;24.43;;
3036;SDS011;1528;52.550;13.408;2024-02-26T00:47:10;26.00;;;24.43;;
3036;SDS011;1528;52.550;13.408;2024-02-26T00:49:55;25.13;;;23.53;;
3036;SDS011;1528;52.550;13.408;2024-02-26T00:52:41;27.63;;;25.80;;
3036;SDS011;1528;52.550;13.408;2024-02-26T00:55:28;24.07;;;22.23;;
3036;SDS011;1528;52.550;13.408;2024-02-26T00:58:14;21.80;;;20.40;;
3036;SDS011;1528;52.550;13.408;2024-02-26T01:00:59;22.40;;;20.80;;
3036;SDS011;1528;52.550;13.408;2024-02-26T01:03:45;23.50;;;21.77;;
3036;SDS011;1528;52.550;13.408;2024-02-26T01:06:30;23.10;;;21.67;;
3036;SDS011;1528;52.550;13.408;2024-02-26T01:09:16;22.07;;;20.57;;
3036;SDS011;1528;52.550;13.408;2024-02-26T01:12:03;22.73;;;21.23;;
3036;SDS011;1528;52.550;13.408;2024-02-26T01:14:49;21.60;;;20.10;;
3036;SDS011;1528;52.550;13.408;2024-02-26T01:17:34;20.23;;;18.93;;
3036;SDS011;1528;52.550;13.408;2024-02-26T01:20:20;22.17;;;20.77;;
3036;SDS011;1528;52.550;13.408;2024-02-26T01:23:05;21.03;;;19.43;;
3036;SDS011;1528;52.550;13.408;2024-02-26T01:25:51;22.17;;;20.37;;
3036;SDS011;1528;52.550;13.408;2024-02-26T01:28:38;21.67;;;20.20;;
3036;SDS011;1528;52.550;13.408;2024-02-26T01:31:23;20.47;;;19.17;;
3036;SDS011;1528;52.550;13.408;2024-02-26T01:34:09;21.40;;;19.87;;
3036;SDS011;1528;52.550;13.408;2024-02-26T01:36:54;21.33;;;19.73;;
3036;SDS011;1528;52.550;13.408;2024-02-26T01:39:40;21.97;;;20.43;;
3036;SDS011;1528;52.550;13.408;2024-02-26T01:42:25;23.57;;;22.07;;
3036;SDS011;1528;52.550;13.408;2024-02-26T01:45:14;19.63;;;18.20;;
3036;SDS011;1528;52.550;13.408;2024-02-26T01:48:05;21.03;;;19.63;;
3036;SDS011;1528;52.550;13.408;2024-02-26T01:50:51;22.40;;;20.87;;
3036;SDS011;1528;52.550;13.408;2024-02-26T01:53:38;23.70;;;22.10;;
3036;SDS011;1528;52.550;13.408;2024-02-26T01:56:23;20.70;;;19.40;;
3036;SDS011;1528;52.550;13.408;2024-02-26T01:59:13;20.00;;;18.67;;
3036;SDS011;1528;52.550;13.408;2024-02-26T02:02:00;20.30;;;19.00;;
3036;SDS011;1528;52.550;13.408;2024-02-26T02:04:48;20.00;;;18.77;;
3036;SDS011;1528;52.550;13.408;2024-02-26T02:07:34;18.93;;;17.53;;
3036;SDS011;1528;52.550;13.408;2024-02-26T02:10:20;20.90;;;19.40;;
3036;SDS011;1528;52.550;13.408;2024-02-26T02:13:09;19.43;;;18.23;;
3036;SDS011;1528;52.550;13.408;2024-02-26T02:15:54;17.60;;;16.60;;
3036;SDS011;1528;52.550;13.408;2024-02-26T02:18:41;19.80;;;18.57;;
3036;SDS011;1528;52.550;13.408;2024-02-26T02:21:28;19.90;;;18.70;;
3036;SDS011;1528;52.550;13.408;2024-02-26T02:24:13;18.80;;;17.70;;
3036;SDS011;1528;52.550;13.408;2024-02-26T02:26:59;18.57;;;16.97;;
3036;SDS011;1528;52.550;13.408;2024-02-26T02:29:45;18.90;;;17.80;;
3036;SDS011;1528;52.550;13.408;2024-02-26T02:32:31;17.50;;;16.50;;
3036;SDS011;1528;52.550;13.408;2024-02-26T02:35:17;17.67;;;16.57;;
3036;SDS011;1528;52.550;13.408;2024-02-26T02:38:04;18.87;;;17.73;;
3036;SDS011;1528;52.550;13.408;2024-02-26T02:40:50;18.63;;;17.40;;
3036;SDS011;1528;52.550;13.408;2024-02-26T02:43:36;18.47;;;17.27;;
3036;SDS011;1528;52.550;13.408;2024-02-26T02:46:21;17.73;;;16.40;;
3036;SDS011;1528;52.550;13.408;2024-02-26T02:49:08;17.70;;;16.60;;
3036;SDS011;1528;52.550;13.408;2024-02-26T02:51:54;16.33;;;15.23;;
3036;SDS011;1528;52.550;13.408;2024-02-26T02:54:42;15.70;;;14.70;;
3036;SDS011;1528;52.550;13.408;2024-02-26T02:57:27;16.87;;;15.20;;
3036;SDS011;1528;52.550;13.408;2024-02-26T03:00:14;15.23;;;14.23;;
3036;SDS011;1528;52.550;13.408;2024-02-26T03:03:00;16.10;;;14.97;;
3036;SDS011;1528;52.550;13.408;2024-02-26T03:05:46;16.00;;;15.03;;
3036;SDS011;1528;52.550;13.408;2024-02-26T03:08:32;14.00;;;12.90;;
3036;SDS011;1528;52.550;13.408;2024-02-26T03:11:22;13.57;;;12.60;;
3036;SDS011;1528;52.550;13.408;2024-02-26T03:14:10;14.10;;;13.30;;
3036;SDS011;1528;52.550;13.408;2024-02-26T03:16:55;14.70;;;13.70;;
3036;SDS011;1528;52.550;13.408;2024-02-26T03:19:42;13.80;;;13.00;;
3036;SDS011;1528;52.550;13.408;2024-02-26T03:22:30;14.57;;;13.77;;
3036;SDS011;1528;52.550;13.408;2024-02-26T03:25:16;15.97;;;15.07;;
3036;SDS011;1528;52.550;13.408;2024-02-26T03:28:03;14.83;;;13.83;;
3036;SDS011;1528;52.550;13.408;2024-02-26T03:30:49;14.33;;;13.43;;
3036;SDS011;1528;52.550;13.408;2024-02-26T03:33:35;14.23;;;13.30;;
3036;SDS011;1528;52.550;13.408;2024-02-26T03:36:20;14.80;;;13.80;;
3036;SDS011;1528;52.550;13.408;2024-02-26T03:39:06;16.17;;;15.07;;
3036;SDS011;1528;52.550;13.408;2024-02-26T03:41:52;14.13;;;13.23;;
3036;SDS011;1528;52.550;13.408;2024-02-26T03:44:39;15.00;;;14.00;;
3036;SDS011;1528;52.550;13.408;2024-02-26T03:47:25;17.80;;;16.73;;
3036;SDS011;1528;52.550;13.408;2024-02-26T03:50:10;19.90;;;18.70;;
3036;SDS011;1528;52.550;13.408;2024-02-26T03:52:56;20.23;;;19.13;;
3036;SDS011;1528;52.550;13.408;2024-02-26T03:55:42;17.17;;;16.10;;
3036;SDS011;1528;52.550;13.408;2024-02-26T03:58:27;18.40;;;17.20;;
3036;SDS011;1528;52.550;13.408;2024-02-26T04:01:14;18.90;;;17.73;;
3036;SDS011;1528;52.550;13.408;2024-02-26T04:04:00;22.60;;;21.33;;
3036;SDS011;1528;52.550;13.408;2024-02-26T04:06:46;19.20;;;17.80;;
3036;SDS011;1528;52.550;13.408;2024-02-26T04:09:32;17.90;;;16.50;;
3036;SDS011;1528;52.550;13.408;2024-02-26T04:12:17;19.50;;;18.13;;
3036;SDS011;1528;52.550;13.408;2024-02-26T04:15:04;18.60;;;17.23;;
3036;SDS011;1528;52.550;13.408;2024-02-26T04:17:51;19.80;;;18.50;;
3036;SDS011;1528;52.550;13.408;2024-02-26T04:20:37;18.67;;;17.37;;
3036;SDS011;1528;52.550;13.408;2024-02-26T04:23:24;17.67;;;16.57;;
3036;SDS011;1528;52.550;13.408;2024-02-26T04:26:10;19.03;;;17.93;;
3036;SDS011;1528;52.550;13.408;2024-02-26T04:28:56;18.63;;;17.43;;
3036;SDS011;1528;52.550;13.408;2024-02-26T04:31:41;18.60;;;17.30;;
3036;SDS011;1528;52.550;13.408;2024-02-26T04:34:28;19.20;;;17.83;;
3036;SDS011;1528;52.550;13.408;2024-02-26T04:37:14;18.07;;;16.93;;
3036;SDS011;1528;52.550;13.408;2024-02-26T04:40:00;19.83;;;18.23;;
3036;SDS011;1528;52.550;13.408;2024-02-26T04:42:46;18.03;;;16.93;;
3036;SDS011;1528;52.550;13.408;2024-02-26T04:45:31;19.43;;;18.37;;
3036;SDS011;1528;52.550;13.408;2024-02-26T04:48:17;19.40;;;18.07;;
3036;SDS011;1528;52.550;13.408;2024-02-26T04:51:04;20.03;;;18.80;;
3036;SDS011;1528;52.550;13.408;2024-02-26T04:53:50;17.67;;;16.37;;
3036;SDS011;1528;52.550;13.408;2024-02-26T04:56:37;19.27;;;18.17;;
3036;SDS011;1528;52.550;13.408;2024-02-26T04:59:23;19.23;;;17.73;;
3036;SDS011;1528;52.550;13.408;2024-02-26T05:02:08;21.87;;;20.37;;
3036;SDS011;1528;52.550;13.408;2024-02-26T05:04:54;18.83;;;17.63;;
3036;SDS011;1528;52.550;13.408;2024-02-26T05:07:41;18.60;;;17.40;;
3036;SDS011;1528;52.550;13.408;2024-02-26T05:10:27;21.50;;;20.00;;
3036;SDS011;1528;52.550;13.408;2024-02-26T05:13:12;21.00;;;19.50;;
3036;SDS011;1528;52.550;13.408;2024-02-26T05:15:58;19.00;;;17.90;;
3036;SDS011;1528;52.550;13.408;2024-02-26T05:18:44;20.10;;;18.67;;
3036;SDS011;1528;52.550;13.408;2024-02-26T05:21:30;18.90;;;17.50;;
3036;SDS011;1528;52.550;13.408;2024-02-26T05:24:17;20.47;;;18.93;;
3036;SDS011;1528;52.550;13.408;2024-02-26T05:27:06;19.67;;;18.43;;
3036;SDS011;1528;52.550;13.408;2024-02-26T05:29:52;19.33;;;18.10;;
3036;SDS011;1528;52.550;13.408;2024-02-26T05:32:37;23.00;;;21.37;;
3036;SDS011;1528;52.550;13.408;2024-02-26T05:35:23;21.77;;;20.07;;
3036;SDS011;1528;52.550;13.408;2024-02-26T05:38:09;22.80;;;21.13;;
3036;SDS011;1528;52.550;13.408;2024-02-26T05:40:56;22.13;;;20.43;;
3036;SDS011;1528;52.550;13.408;2024-02-26T05:43:42;19.90;;;18.40;;
3036;SDS011;1528;52.550;13.408;2024-02-26T05:46:28;22.30;;;20.80;;
3036;SDS011;1528;52.550;13.408;2024-02-26T05:49:14;21.57;;;19.90;;
3036;SDS011;1528;52.550;13.408;2024-02-26T05:51:59;21.37;;;19.70;;
3036;SDS011;1528;52.550;13.408;2024-02-26T05:54:45;20.97;;;19.47;;
3036;SDS011;1528;52.550;13.408;2024-02-26T05:57:33;21.00;;;19.50;;
3036;SDS011;1528;52.550;13.408;2024-02-26T06:00:19;22.17;;;20.47;;
3036;SDS011;1528;52.550;13.408;2024-02-26T06:03:05;23.53;;;21.57;;
3036;SDS011;1528;52.550;13.408;2024-02-26T06:05:50;23.93;;;22.03;;
3036;SDS011;1528;52.550;13.408;2024-02-26T06:08:36;24.60;;;22.63;;
3036;SDS011;1528;52.550;13.408;2024-02-26T06:11:22;21.57;;;19.67;;
3036;SDS011;1528;52.550;13.408;2024-02-26T06:14:08;21.80;;;20.20;;
3036;SDS011;1528;52.550;13.408;2024-02-26T06:16:56;23.10;;;21.40;;
3036;SDS011;1528;52.550;13.408;2024-02-26T06:19:41;22.30;;;20.70;;
3036;SDS011;1528;52.550;13.408;2024-02-26T06:22:27;22.97;;;21.17;;
3036;SDS011;1528;52.550;13.408;2024-02-26T06:25:14;22.07;;;20.20;;
3036;SDS011;1528;52.550;13.408;2024-02-26T06:28:00;24.27;;;22.10;;
3036;SDS011;1528;52.550;13.408;2024-02-26T06:30:47;22.40;;;20.57;;
3036;SDS011;1528;52.550;13.408;2024-02-26T06:33:34;25.53;;;23.80;;
3036;SDS011;1528;52.550;13.408;2024-02-26T06:36:20;23.37;;;21.63;;
3036;SDS011;1528;52.550;13.408;2024-02-26T06:39:05;23.63;;;21.80;;
3036;SDS011;1528;52.550;13.408;2024-02-26T06:41:51;25.10;;;23.00;;
3036;SDS011;1528;52.550;13.408;2024-02-26T06:44:43;26.07;;;24.23;;
3036;SDS011;1528;52.550;13.408;2024-02-26T06:47:30;24.33;;;22.43;;
3036;SDS011;1528;52.550;13.408;2024-02-26T06:50:16;24.77;;;22.93;;
3036;SDS011;1528;52.550;13.408;2024-02-26T06:53:02;26.30;;;24.40;;
3036;SDS011;1528;52.550;13.408;2024-02-26T06:55:48;25.10;;;23.27;;
3036;SDS011;1528;52.550;13.408;2024-02-26T06:58:33;24.20;;;22.30;;
3036;SDS011;1528;52.550;13.408;2024-02-26T07:01:19;24.00;;;22.20;;
3036;SDS011;1528;52.550;13.408;2024-02-26T07:04:06;25.00;;;23.20;;
3036;SDS011;1528;52.550;13.408;2024-02-26T07:06:51;29.00;;;27.00;;
3036;SDS011;1528;52.550;13.408;2024-02-26T07:09:37;26.33;;;23.93;;
3036;SDS011;1528;52.550;13.408;2024-02-26T07:12:23;25.87;;;23.87;;
3036;SDS011;1528;52.550;13.408;2024-02-26T07:15:09;26.30;;;24.20;;
3036;SDS011;1528;52.550;13.408;2024-02-26T07:17:56;28.93;;;26.37;;
3036;SDS011;1528;52.550;13.408;2024-02-26T07:20:47;25.47;;;23.43;;
3036;SDS011;1528;52.550;13.408;2024-02-26T07:23:33;25.63;;;23.60;;
3036;SDS011;1528;52.550;13.408;2024-02-26T07:26:19;29.50;;;27.23;;
3036;SDS011;1528;52.550;13.408;2024-02-26T07:29:04;28.40;;;26.40;;
3036;SDS011;1528;52.550;13.408;2024-02-26T07:31:50;28.27;;;26.10;;
3036;SDS011;1528;52.550;13.408;2024-02-26T07:34:35;30.93;;;28.30;;
3036;SDS011;1528;52.550;13.408;2024-02-26T07:37:26;30.53;;;28.07;;
3036;SDS011;1528;52.550;13.408;2024-02-26T07:40:12;27.90;;;25.80;;
3036;SDS011;1528;52.550;13.408;2024-02-26T07:42:58;28.67;;;26.47;;
3036;SDS011;1528;52.550;13.408;2024-02-26T07:45:43;27.70;;;25.70;;
3036;SDS011;1528;52.550;13.408;2024-02-26T07:48:29;28.47;;;26.17;;
3036;SDS011;1528;52.550;13.408;2024-02-26T07:51:14;32.47;;;29.83;;
3036;SDS011;1528;52.550;13.408;2024-02-26T07:54:02;28.33;;;25.83;;
3036;SDS011;1528;52.550;13.408;2024-02-26T07:56:48;27.37;;;25.37;;
3036;SDS011;1528;52.550;13.408;2024-02-26T07:59:34;29.07;;;26.93;;
3036;SDS011;1528;52.550;13.408;2024-02-26T08:02:20;28.23;;;26.07;;
3036;SDS011;1528;52.550;13.408;2024-02-26T08:05:07;27.33;;;25.20;;
3036;SDS011;1528;52.550;13.408;2024-02-26T08:07:52;28.63;;;26.40;;
3036;SDS011;1528;52.550;13.408;2024-02-26T08:10:39;29.43;;;27.33;;
3036;SDS011;1528;52.550;13.408;2024-02-26T08:13:25;29.37;;;27.27;;
3036;SDS011;1528;52.550;13.408;2024-02-26T08:16:11;31.10;;;28.80;;
3036;SDS011;1528;52.550;13.408;2024-02-26T08:18:56;29.23;;;27.27;;
3036;SDS011;1528;52.550;13.408;2024-02-26T08:21:42;30.23;;;27.93;;
3036;SDS011;1528;52.550;13.408;2024-02-26T08:24:27;27.83;;;25.60;;
3036;SDS011;1528;52.550;13.408;2024-02-26T08:27:14;26.73;;;24.83;;
3036;SDS011;1528;52.550;13.408;2024-02-26T08:30:01;26.73;;;24.73;;
3036;SDS011;1528;52.550;13.408;2024-02-26T08:32:47;27.17;;;25.00;;
3036;SDS011;1528;52.550;13.408;2024-02-26T08:35:33;28.23;;;26.03;;
3036;SDS011;1528;52.550;13.408;2024-02-26T08:38:18;30.43;;;28.43;;
3036;SDS011;1528;52.550;13.408;2024-02-26T08:41:04;28.87;;;26.97;;
3036;SDS011;1528;52.550;13.408;2024-02-26T08:43:51;27.60;;;25.50;;
3036;SDS011;1528;52.550;13.408;2024-02-26T08:46:36;27.87;;;25.70;;
3036;SDS011;1528;52.550;13.408;2024-02-26T08:49:22;28.13;;;25.97;;
3036;SDS011;1528;52.550;13.408;2024-02-26T08:52:08;27.63;;;25.60;;
3036;SDS011;1528;52.550;13.408;2024-02-26T08:54:53;27.83;;;25.77;;
3036;SDS011;1528;52.550;13.408;2024-02-26T08:57:39;30.23;;;27.90;;
3036;SDS011;1528;52.550;13.408;2024-02-26T09:00:26;29.60;;;27.40;;
3036;SDS011;1528;52.550;13.408;2024-02-26T09:03:11;28.90;;;26.70;;
3036;SDS011;1528;52.550;13.408;2024-02-26T09:05:57;29.07;;;26.90;;
3036;SDS011;1528;52.550;13.408;2024-02-26T09:08:43;28.50;;;26.60;;
3036;SDS011;1528;52.550;13.408;2024-02-26T09:11:28;28.03;;;25.70;;
3036;SDS011;1528;52.550;13.408;2024-02-26T09:14:14;30.90;;;28.87;;
3036;SDS011;1528;52.550;13.408;2024-02-26T09:17:01;29.60;;;27.60;;
3036;SDS011;1528;52.550;13.408;2024-02-26T09:19:47;27.37;;;25.43;;
3036;SDS011;1528;52.550;13.408;2024-02-26T09:22:33;27.63;;;25.33;;
3036;SDS011;1528;52.550;13.408;2024-02-26T09:25:21;28.43;;;26.23;;
3036;SDS011;1528;52.550;13.408;2024-02-26T09:28:07;27.40;;;25.60;;
3036;SDS011;1528;52.550;13.408;2024-02-26T09:30:52;27.70;;;25.70;;
3036;SDS011;1528;52.550;13.408;2024-02-26T09:33:39;29.50;;;27.10;;
3036;SDS011;1528;52.550;13.408;2024-02-26T09:36:25;28.93;;;26.83;;
3036;SDS011;1528;52.550;13.408;2024-02-26T09:39:10;27.80;;;25.83;;
3036;SDS011;1528;52.550;13.408;2024-02-26T09:41:58;24.13;;;22.43;;
3036;SDS011;1528;52.550;13.408;2024-02-26T09:44:46;28.27;;;26.07;;
3036;SDS011;1528;52.550;13.408;2024-02-26T09:47:36;25.97;;;24.27;;
3036;SDS011;1528;52.550;13.408;2024-02-26T09:50:24;27.10;;;25.07;;
3036;SDS011;1528;52.550;13.408;2024-02-26T09:53:10;26.50;;;24.37;;
3036;SDS011;1528;52.550;13.408;2024-02-26T09:55:58;27.00;;;25.10;;
3036;SDS011;1528;52.550;13.408;2024-02-26T09:58:44;27.70;;;25.53;;
3036;SDS011;1528;52.550;13.408;2024-02-26T10:01:32;26.10;;;24.10;;
3036;SDS011;1528;52.550;13.408;2024-02-26T10:04:18;27.10;;;25.20;;
3036;SDS011;1528;52.550;13.408;2024-02-26T10:07:06;27.67;;;25.87;;
3036;SDS011;1528;52.550;13.408;2024-02-26T10:09:55;26.63;;;24.93;;
3036;SDS011;1528;52.550;13.408;2024-02-26T10:12:41;24.47;;;22.87;;
3036;SDS011;1528;52.550;13.408;2024-02-26T10:15:26;24.67;;;23.07;;
3036;SDS011;1528;52.550;13.408;2024-02-26T10:18:12;26.70;;;24.80;;
3036;SDS011;1528;52.550;13.408;2024-02-26T10:21:01;26.63;;;24.87;;
3036;SDS011;1528;52.550;13.408;2024-02-26T10:23:48;25.63;;;23.50;;
3036;SDS011;1528;52.550;13.408;2024-02-26T10:26:35;25.40;;;23.80;;
3036;SDS011;1528;52.550;13.408;2024-02-26T10:29:21;22.93;;;21.40;;
3036;SDS011;1528;52.550;13.408;2024-02-26T10:32:08;21.63;;;20.23;;
3036;SDS011;1528;52.550;13.408;2024-02-26T10:34:55;25.10;;;23.10;;
3036;SDS011;1528;52.550;13.408;2024-02-26T10:37:41;22.90;;;21.37;;
3036;SDS011;1528;52.550;13.408;2024-02-26T10:40:28;22.23;;;20.77;;
3036;SDS011;1528;52.550;13.408;2024-02-26T10:43:13;24.73;;;22.83;;
3036;SDS011;1528;52.550;13.408;2024-02-26T10:46:00;23.77;;;22.27;;
3036;SDS011;1528;52.550;13.408;2024-02-26T10:48:49;23.77;;;22.27;;
3036;SDS011;1528;52.550;13.408;2024-02-26T10:51:35;21.57;;;20.07;;
3036;SDS011;1528;52.550;13.408;2024-02-26T10:54:23;22.37;;;21.00;;
3036;SDS011;1528;52.550;13.408;2024-02-26T10:57:12;23.80;;;22.23;;
3036;SDS011;1528;52.550;13.408;2024-02-26T10:59:58;22.90;;;21.50;;
3036;SDS011;1528;52.550;13.408;2024-02-26T11:02:47;19.40;;;18.20;;
3036;SDS011;1528;52.550;13.408;2024-02-26T11:05:33;25.70;;;24.30;;
3036;SDS011;1528;52.550;13.408;2024-02-26T11:08:21;22.13;;;20.73;;
3036;SDS011;1528;52.550;13.408;2024-02-26T11:11:08;21.20;;;19.90;;
3036;SDS011;1528;52.550;13.408;2024-02-26T11:13:58;20.60;;;19.27;;
3036;SDS011;1528;52.550;13.408;2024-02-26T11:16:45;21.60;;;20.10;;
3036;SDS011;1528;52.550;13.408;2024-02-26T11:19:32;21.23;;;19.73;;
3036;SDS011;1528;52.550;13.408;2024-02-26T11:22:21;27.10;;;25.50;;
3036;SDS011;1528;52.550;13.408;2024-02-26T11:25:07;25.07;;;23.37;;
3036;SDS011;1528;52.550;13.408;2024-02-26T11:27:55;23.07;;;21.57;;
3036;SDS011;1528;52.550;13.408;2024-02-26T11:30:47;23.70;;;22.30;;
3036;SDS011;1528;52.550;13.408;2024-02-26T11:33:34;28.43;;;26.70;;
3036;SDS011;1528;52.550;13.408;2024-02-26T11:36:20;24.27;;;22.73;;
3036;SDS011;1528;52.550;13.408;2024-02-26T11:39:06;22.20;;;20.50;;
3036;SDS011;1528;52.550;13.408;2024-02-26T11:41:52;24.23;;;22.37;;
3036;SDS011;1528;52.550;13.408;2024-02-26T11:44:38;26.03;;;24.33;;
3036;SDS011;1528;52.550;13.408;2024-02-26T11:47:26;26.00;;;24.30;;
3036;SDS011;1528;52.550;13.408;2024-02-26T11:53:25;27.50;;;25.70;;
3036;SDS011;1528;52.550;13.408;2024-02-26T11:56:12;27.53;;;25.80;;
3036;SDS011;1528;52.550;13.408;2024-02-26T11:58:59;29.73;;;27.93;;
3036;SDS011;1528;52.550;13.408;2024-02-26T12:01:46;27.87;;;26.27;;
3036;SDS011;1528;52.550;13.408;2024-02-26T12:04:34;29.17;;;27.07;;
3036;SDS011;1528;52.550;13.408;2024-02-26T12:07:21;26.97;;;25.20;;
3036;SDS011;1528;52.550;13.408;2024-02-26T12:13:19;25.10;;;23.10;;
3036;SDS011;1528;52.550;13.408;2024-02-26T12:16:14;28.23;;;26.13;;
3036;SDS011;1528;52.550;13.408;2024-02-26T12:19:20;24.37;;;22.67;;
3036;SDS011;1528;52.550;13.408;2024-02-26T12:22:08;24.23;;;22.57;;
3036;SDS011;1528;52.550;13.408;2024-02-26T12:24:58;24.80;;;23.10;;
3036;SDS011;1528;52.550;13.408;2024-02-26T12:27:44;23.90;;;22.40;;
3036;SDS011;1528;52.550;13.408;2024-02-26T12:30:30;23.83;;;22.33;;
3036;SDS011;1528;52.550;13.408;2024-02-26T12:33:16;20.13;;;18.87;;
3036;SDS011;1528;52.550;13.408;2024-02-26T12:36:02;23.77;;;22.10;;
3036;SDS011;1528;52.550;13.408;2024-02-26T12:38:49;24.50;;;22.90;;
3036;SDS011;1528;52.550;13.408;2024-02-26T12:41:35;25.17;;;23.67;;
3036;SDS011;1528;52.550;13.408;2024-02-26T12:44:24;23.70;;;22.20;;
3036;SDS011;1528;52.550;13.408;2024-02-26T12:47:10;23.40;;;21.93;;
3036;SDS011;1528;52.550;13.408;2024-02-26T12:50:00;22.60;;;21.13;;
3036;SDS011;1528;52.550;13.408;2024-02-26T12:52:50;20.60;;;19.30;;
3036;SDS011;1528;52.550;13.408;2024-02-26T12:55:38;20.77;;;18.93;;
3036;SDS011;1528;52.550;13.408;2024-02-26T12:58:24;19.70;;;18.40;;
3036;SDS011;1528;52.550;13.408;2024-02-26T13:01:13;19.57;;;18.33;;
3036;SDS011;1528;52.550;13.408;2024-02-26T13:03:59;20.00;;;18.70;;
3036;SDS011;1528;52.550;13.408;2024-02-26T13:06:50;18.20;;;17.10;;
3036;SDS011;1528;52.550;13.408;2024-02-26T13:09:35;18.80;;;17.80;;
3036;SDS011;1528;52.550;13.408;2024-02-26T13:12:23;21.37;;;20.20;;
3036;SDS011;1528;52.550;13.408;2024-02-26T13:15:08;17.80;;;16.80;;
3036;SDS011;1528;52.550;13.408;2024-02-26T13:17:59;18.57;;;17.57;;
3036;SDS011;1528;52.550;13.408;2024-02-26T13:20:55;16.90;;;15.90;;
3036;SDS011;1528;52.550;13.408;2024-02-26T13:23:52;16.20;;;15.10;;
3036;SDS011;1528;52.550;13.408;2024-02-26T13:26:38;16.27;;;15.30;;
3036;SDS011;1528;52.550;13.408;2024-02-26T13:29:25;16.27;;;15.47;;
3036;SDS011;1528;52.550;13.408;2024-02-26T13:32:11;18.20;;;17.30;;
3036;SDS011;1528;52.550;13.408;2024-02-26T13:35:03;16.83;;;15.83;;
3036;SDS011;1528;52.550;13.408;2024-02-26T13:37:50;19.57;;;18.37;;
3036;SDS011;1528;52.550;13.408;2024-02-26T13:40:35;13.63;;;12.90;;
3036;SDS011;1528;52.550;13.408;2024-02-26T13:43:21;17.13;;;16.23;;
3036;SDS011;1528;52.550;13.408;2024-02-26T13:46:08;14.87;;;14.00;;
3036;SDS011;1528;52.550;13.408;2024-02-26T13:48:54;15.30;;;14.50;;
3036;SDS011;1528;52.550;13.408;2024-02-26T13:51:40;15.17;;;14.27;;
3036;SDS011;1528;52.550;13.408;2024-02-26T13:54:26;16.77;;;15.97;;
3036;SDS011;1528;52.550;13.408;2024-02-26T13:57:11;18.10;;;17.20;;
3036;SDS011;1528;52.550;13.408;2024-02-26T13:59:57;15.60;;;14.67;;
3036;SDS011;1528;52.550;13.408;2024-02-26T14:02:44;15.93;;;15.13;;
3036;SDS011;1528;52.550;13.408;2024-02-26T14:05:30;14.43;;;13.33;;
3036;SDS011;1528;52.550;13.408;2024-02-26T14:08:15;17.10;;;16.10;;
3036;SDS011;1528;52.550;13.408;2024-02-26T14:11:01;17.50;;;16.60;;
3036;SDS011;1528;52.550;13.408;2024-02-26T14:13:47;16.47;;;15.63;;
3036;SDS011;1528;52.550;13.408;2024-02-26T14:16:32;15.93;;;14.93;;
3036;SDS011;1528;52.550;13.408;2024-02-26T14:19:20;15.73;;;14.73;;
3036;SDS011;1528;52.550;13.408;2024-02-26T14:22:05;17.80;;;16.80;;
3036;SDS011;1528;52.550;13.408;2024-02-26T14:24:51;17.87;;;16.87;;
3036;SDS011;1528;52.550;13.408;2024-02-26T14:27:37;16.27;;;15.37;;
3036;SDS011;1528;52.550;13.408;2024-02-26T14:30:22;18.70;;;17.70;;
3036;SDS011;1528;52.550;13.408;2024-02-26T14:33:08;17.83;;;16.87;;
3036;SDS011;1528;52.550;13.408;2024-02-26T14:35:55;19.93;;;18.93;;
3036;SDS011;1528;52.550;13.408;2024-02-26T14:38:41;18.17;;;17.17;;
3036;SDS011;1528;52.550;13.408;2024-02-26T14:41:26;17.77;;;16.73;;
3036;SDS011;1528;52.550;13.408;2024-02-26T14:44:12;17.30;;;16.30;;
3036;SDS011;1528;52.550;13.408;2024-02-26T14:46:58;18.20;;;17.20;;
3036;SDS011;1528;52.550;13.408;2024-02-26T14:49:43;19.10;;;18.00;;
3036;SDS011;1528;52.550;13.408;2024-02-26T14:52:33;23.00;;;21.80;;
3036;SDS011;1528;52.550;13.408;2024-02-26T14:55:18;24.67;;;23.43;;
3036;SDS011;1528;52.550;13.408;2024-02-26T14:58:04;21.97;;;20.83;;
3036;SDS011;1528;52.550;13.408;2024-02-26T15:00:50;19.73;;;18.73;;
3036;SDS011;1528;52.550;13.408;2024-02-26T15:03:36;20.50;;;19.40;;
3036;SDS011;1528;52.550;13.408;2024-02-26T15:06:21;20.87;;;19.57;;
3036;SDS011;1528;52.550;13.408;2024-02-26T15:09:08;23.90;;;22.70;;
3036;SDS011;1528;52.550;13.408;2024-02-26T15:11:54;25.10;;;23.80;;
3036;SDS011;1528;52.550;13.408;2024-02-26T15:14:41;22.87;;;21.57;;
3036;SDS011;1528;52.550;13.408;2024-02-26T15:17:27;19.23;;;18.13;;
3036;SDS011;1528;52.550;13.408;2024-02-26T15:20:13;24.57;;;23.27;;
3036;SDS011;1528;52.550;13.408;2024-02-26T15:22:58;21.10;;;20.10;;
3036;SDS011;1528;52.550;13.408;2024-02-26T15:25:46;22.37;;;21.17;;
3036;SDS011;1528;52.550;13.408;2024-02-26T15:28:32;20.77;;;19.57;;
3036;SDS011;1528;52.550;13.408;2024-02-26T15:31:17;23.13;;;22.07;;
3036;SDS011;1528;52.550;13.408;2024-02-26T15:34:04;22.93;;;21.83;;
3036;SDS011;1528;52.550;13.408;2024-02-26T15:36:50;22.17;;;20.97;;
3036;SDS011;1528;52.550;13.408;2024-02-26T15:39:36;23.53;;;22.20;;
3036;SDS011;1528;52.550;13.408;2024-02-26T15:42:23;22.87;;;21.77;;
3036;SDS011;1528;52.550;13.408;2024-02-26T15:45:09;20.53;;;19.33;;
3036;SDS011;1528;52.550;13.408;2024-02-26T15:47:54;22.23;;;20.83;;
3036;SDS011;1528;52.550;13.408;2024-02-26T15:50:40;22.47;;;21.27;;
3036;SDS011;1528;52.550;13.408;2024-02-26T15:53:25;21.73;;;20.23;;
3036;SDS011;1528;52.550;13.408;2024-02-26T15:56:11;30.67;;;20.90;;
3036;SDS011;1528;52.550;13.408;2024-02-26T15:58:58;21.50;;;20.30;;
3036;SDS011;1528;52.550;13.408;2024-02-26T16:01:43;20.60;;;19.40;;
3036;SDS011;1528;52.550;13.408;2024-02-26T16:04:29;23.60;;;21.90;;
3036;SDS011;1528;52.550;13.408;2024-02-26T16:07:17;22.20;;;20.80;;
3036;SDS011;1528;52.550;13.408;2024-02-26T16:10:07;25.23;;;23.43;;
3036;SDS011;1528;52.550;13.408;2024-02-26T16:12:54;20.90;;;19.50;;
3036;SDS011;1528;52.550;13.408;2024-02-26T16:15:45;19.03;;;17.60;;
3036;SDS011;1528;52.550;13.408;2024-02-26T16:18:33;22.20;;;20.57;;
3036;SDS011;1528;52.550;13.408;2024-02-26T16:21:20;20.33;;;19.00;;
3036;SDS011;1528;52.550;13.408;2024-02-26T16:24:05;24.53;;;22.90;;
3036;SDS011;1528;52.550;13.408;2024-02-26T16:26:51;22.30;;;20.90;;
3036;SDS011;1528;52.550;13.408;2024-02-26T16:29:37;19.83;;;18.47;;
3036;SDS011;1528;52.550;13.408;2024-02-26T16:32:24;20.23;;;19.03;;